sensor_id;sensor_type;location;lat;lon;timestamp;pressure;altitude;pressure_sealevel;temperature;humidity
77723;BME280;67811;42.656;23.394;2023-06-04T00:00:29;95192.25;;;14.98;85.04
77723;BME280;67811;42.656;23.394;2023-06-04T00:02:54;95190.19;;;15.07;84.95
77723;BME280;67811;42.656;23.394;2023-06-04T00:05:20;95193.25;;;15.03;84.97
77723;BME280;67811;42.656;23.394;2023-06-04T00:07:45;95197.56;;;15.05;85.07
77723;BME280;67811;42.656;23.394;2023-06-04T00:10:10;95195.13;;;15.03;85.08
77723;BME280;67811;42.656;23.394;2023-06-04T00:12:35;95200.22;;;15.05;85.86
77723;BME280;67811;42.656;23.394;2023-06-04T00:15:01;95203.72;;;15.12;85.84
77723;BME280;67811;42.656;23.394;2023-06-04T00:17:27;95194.44;;;15.21;85.67
77723;BME280;67811;42.656;23.394;2023-06-04T00:19:52;95197.06;;;15.34;85.29
77723;BME280;67811;42.656;23.394;2023-06-04T00:22:17;95205.06;;;15.41;85.51
77723;BME280;67811;42.656;23.394;2023-06-04T00:24:43;95194.53;;;15.52;85.36
77723;BME280;67811;42.656;23.394;2023-06-04T00:27:08;95193.13;;;15.50;85.22
77723;BME280;67811;42.656;23.394;2023-06-04T00:29:34;95191.00;;;15.59;85.35
77723;BME280;67811;42.656;23.394;2023-06-04T00:31:59;95190.06;;;15.40;85.83
77723;BME280;67811;42.656;23.394;2023-06-04T00:34:24;95194.41;;;15.34;86.28
77723;BME280;67811;42.656;23.394;2023-06-04T00:36:50;95188.44;;;15.39;87.45
77723;BME280;67811;42.656;23.394;2023-06-04T00:39:15;95185.72;;;15.45;87.09
77723;BME280;67811;42.656;23.394;2023-06-04T00:41:40;95189.09;;;15.21;88.68
77723;BME280;67811;42.656;23.394;2023-06-04T00:44:06;95179.63;;;15.32;89.13
77723;BME280;67811;42.656;23.394;2023-06-04T00:46:31;95187.63;;;15.32;89.08
77723;BME280;67811;42.656;23.394;2023-06-04T00:48:57;95184.97;;;15.25;89.47
77723;BME280;67811;42.656;23.394;2023-06-04T00:51:22;95180.50;;;15.19;89.99
77723;BME280;67811;42.656;23.394;2023-06-04T00:53:51;95184.75;;;15.26;89.94
77723;BME280;67811;42.656;23.394;2023-06-04T00:56:17;95179.66;;;15.25;90.02
77723;BME280;67811;42.656;23.394;2023-06-04T00:58:44;95182.69;;;15.35;89.76
77723;BME280;67811;42.656;23.394;2023-06-04T01:01:17;95185.13;;;15.37;90.22
77723;BME280;67811;42.656;23.394;2023-06-04T01:03:47;95188.09;;;15.22;89.96
77723;BME280;67811;42.656;23.394;2023-06-04T01:08:45;95186.69;;;15.06;90.83
77723;BME280;67811;42.656;23.394;2023-06-04T01:11:11;95191.41;;;15.04;90.91
77723;BME280;67811;42.656;23.394;2023-06-04T01:13:36;95182.19;;;15.07;91.17
77723;BME280;67811;42.656;23.394;2023-06-04T01:16:01;95186.88;;;15.05;90.17
77723;BME280;67811;42.656;23.394;2023-06-04T01:18:27;95188.94;;;15.09;89.94
77723;BME280;67811;42.656;23.394;2023-06-04T01:21:11;95186.59;;;15.33;88.92
77723;BME280;67811;42.656;23.394;2023-06-04T01:23:49;95188.44;;;15.32;87.56
77723;BME280;67811;42.656;23.394;2023-06-04T01:26:15;95189.47;;;15.31;86.92
77723;BME280;67811;42.656;23.394;2023-06-04T01:28:40;95192.56;;;15.35;87.55
77723;BME280;67811;42.656;23.394;2023-06-04T01:31:07;95190.25;;;15.45;85.92
77723;BME280;67811;42.656;23.394;2023-06-04T01:33:33;95194.38;;;15.41;84.35
77723;BME280;67811;42.656;23.394;2023-06-04T01:35:58;95204.53;;;15.12;84.60
77723;BME280;67811;42.656;23.394;2023-06-04T01:38:23;95200.44;;;15.16;85.34
77723;BME280;67811;42.656;23.394;2023-06-04T01:40:49;95207.63;;;15.09;85.11
77723;BME280;67811;42.656;23.394;2023-06-04T01:43:14;95201.69;;;15.00;85.54
77723;BME280;67811;42.656;23.394;2023-06-04T01:45:39;95207.84;;;15.01;85.84
77723;BME280;67811;42.656;23.394;2023-06-04T01:48:05;95203.75;;;14.98;85.78
77723;BME280;67811;42.656;23.394;2023-06-04T01:50:31;95205.38;;;15.06;85.41
77723;BME280;67811;42.656;23.394;2023-06-04T01:52:57;95205.97;;;15.15;85.09
77723;BME280;67811;42.656;23.394;2023-06-04T01:55:23;95208.84;;;15.13;85.35
77723;BME280;67811;42.656;23.394;2023-06-04T01:57:48;95207.47;;;14.71;86.60
77723;BME280;67811;42.656;23.394;2023-06-04T02:00:14;95210.56;;;14.74;87.16
77723;BME280;67811;42.656;23.394;2023-06-04T02:02:41;95215.31;;;14.72;87.73
77723;BME280;67811;42.656;23.394;2023-06-04T02:05:07;95222.66;;;14.77;87.55
77723;BME280;67811;42.656;23.394;2023-06-04T02:07:41;95215.88;;;14.88;87.17
77723;BME280;67811;42.656;23.394;2023-06-04T02:10:08;95205.63;;;14.91;87.24
77723;BME280;67811;42.656;23.394;2023-06-04T02:12:36;95218.78;;;14.80;87.32
77723;BME280;67811;42.656;23.394;2023-06-04T02:15:03;95220.81;;;14.91;87.55
77723;BME280;67811;42.656;23.394;2023-06-04T02:17:28;95217.31;;;14.77;87.84
77723;BME280;67811;42.656;23.394;2023-06-04T02:19:53;95224.09;;;14.86;88.06
77723;BME280;67811;42.656;23.394;2023-06-04T02:22:19;95219.56;;;14.87;87.61
77723;BME280;67811;42.656;23.394;2023-06-04T02:24:45;95225.75;;;14.74;88.40
77723;BME280;67811;42.656;23.394;2023-06-04T02:27:12;95226.38;;;14.69;88.53
77723;BME280;67811;42.656;23.394;2023-06-04T02:29:39;95227.81;;;14.65;89.44
77723;BME280;67811;42.656;23.394;2023-06-04T02:32:04;95231.47;;;14.77;89.20
77723;BME280;67811;42.656;23.394;2023-06-04T02:34:30;95236.84;;;14.84;89.20
77723;BME280;67811;42.656;23.394;2023-06-04T02:36:56;95238.44;;;14.92;88.77
77723;BME280;67811;42.656;23.394;2023-06-04T02:39:21;95243.16;;;14.83;88.83
77723;BME280;67811;42.656;23.394;2023-06-04T02:41:47;95239.91;;;14.81;88.88
77723;BME280;67811;42.656;23.394;2023-06-04T02:44:12;95245.66;;;14.85;89.39
77723;BME280;67811;42.656;23.394;2023-06-04T02:46:38;95242.13;;;14.97;89.15
77723;BME280;67811;42.656;23.394;2023-06-04T02:49:04;95245.22;;;15.01;88.76
77723;BME280;67811;42.656;23.394;2023-06-04T02:51:29;95240.28;;;15.11;88.65
77723;BME280;67811;42.656;23.394;2023-06-04T02:53:54;95241.72;;;15.00;87.41
77723;BME280;67811;42.656;23.394;2023-06-04T02:56:20;95248.28;;;15.05;87.07
77723;BME280;67811;42.656;23.394;2023-06-04T02:58:52;95256.06;;;14.99;87.36
77723;BME280;67811;42.656;23.394;2023-06-04T03:01:27;95257.75;;;15.00;87.72
77723;BME280;67811;42.656;23.394;2023-06-04T03:03:54;95251.75;;;15.18;87.16
77723;BME280;67811;42.656;23.394;2023-06-04T03:06:20;95258.94;;;15.18;86.91
77723;BME280;67811;42.656;23.394;2023-06-04T03:08:47;95263.25;;;15.12;87.07
77723;BME280;67811;42.656;23.394;2023-06-04T03:11:13;95259.16;;;15.16;87.17
77723;BME280;67811;42.656;23.394;2023-06-04T03:13:38;95269.81;;;15.23;86.76
77723;BME280;67811;42.656;23.394;2023-06-04T03:16:04;95256.25;;;15.24;86.52
77723;BME280;67811;42.656;23.394;2023-06-04T03:18:29;95255.22;;;15.19;86.85
77723;BME280;67811;42.656;23.394;2023-06-04T03:20:55;95263.38;;;15.37;85.95
77723;BME280;67811;42.656;23.394;2023-06-04T03:23:21;95260.16;;;15.28;85.91
77723;BME280;67811;42.656;23.394;2023-06-04T03:25:47;95262.59;;;15.30;85.66
77723;BME280;67811;42.656;23.394;2023-06-04T03:28:12;95264.22;;;15.38;85.83
77723;BME280;67811;42.656;23.394;2023-06-04T03:30:40;95264.63;;;15.41;85.65
77723;BME280;67811;42.656;23.394;2023-06-04T03:33:06;95271.41;;;15.37;85.04
77723;BME280;67811;42.656;23.394;2023-06-04T03:35:32;95279.25;;;15.25;85.72
77723;BME280;67811;42.656;23.394;2023-06-04T03:37:58;95283.16;;;15.10;86.29
77723;BME280;67811;42.656;23.394;2023-06-04T03:40:23;95279.25;;;15.25;85.86
77723;BME280;67811;42.656;23.394;2023-06-04T03:42:48;95286.44;;;15.18;85.93
77723;BME280;67811;42.656;23.394;2023-06-04T03:45:14;95283.56;;;15.13;86.27
77723;BME280;67811;42.656;23.394;2023-06-04T03:47:39;95285.22;;;15.08;86.69
77723;BME280;67811;42.656;23.394;2023-06-04T03:50:05;95286.25;;;15.13;86.64
77723;BME280;67811;42.656;23.394;2023-06-04T03:52:30;95290.97;;;15.11;86.28
77723;BME280;67811;42.656;23.394;2023-06-04T03:54:56;95289.53;;;15.09;86.55
77723;BME280;67811;42.656;23.394;2023-06-04T03:57:21;95285.63;;;15.05;86.53
77723;BME280;67811;42.656;23.394;2023-06-04T03:59:46;95293.00;;;15.16;86.73
77723;BME280;67811;42.656;23.394;2023-06-04T04:02:12;95292.81;;;15.24;86.01
77723;BME280;67811;42.656;23.394;2023-06-04T04:04:37;95296.50;;;15.10;86.68
77723;BME280;67811;42.656;23.394;2023-06-04T04:07:02;95297.56;;;15.02;86.76
77723;BME280;67811;42.656;23.394;2023-06-04T04:09:28;95299.78;;;15.05;86.76
77723;BME280;67811;42.656;23.394;2023-06-04T04:11:53;95297.97;;;15.06;86.94
77723;BME280;67811;42.656;23.394;2023-06-04T04:14:18;95298.56;;;15.27;86.61
77723;BME280;67811;42.656;23.394;2023-06-04T04:16:43;95296.69;;;15.21;86.34
77723;BME280;67811;42.656;23.394;2023-06-04T04:19:09;95297.72;;;15.20;86.71
77723;BME280;67811;42.656;23.394;2023-06-04T04:21:36;95308.41;;;15.20;86.62
77723;BME280;67811;42.656;23.394;2023-06-04T04:24:02;95310.28;;;15.13;86.88
77723;BME280;67811;42.656;23.394;2023-06-04T04:26:27;95306.78;;;15.06;87.75
77723;BME280;67811;42.656;23.394;2023-06-04T04:28:53;95308.84;;;15.17;87.53
77723;BME280;67811;42.656;23.394;2023-06-04T04:31:18;95312.69;;;15.35;87.45
77723;BME280;67811;42.656;23.394;2023-06-04T04:33:43;95312.06;;;15.33;87.21
77723;BME280;67811;42.656;23.394;2023-06-04T04:36:09;95307.59;;;15.33;87.32
77723;BME280;67811;42.656;23.394;2023-06-04T04:38:34;95307.59;;;15.33;87.00
77723;BME280;67811;42.656;23.394;2023-06-04T04:41:00;95309.59;;;15.44;87.01
77723;BME280;67811;42.656;23.394;2023-06-04T04:45:55;95305.25;;;15.63;86.43
77723;BME280;67811;42.656;23.394;2023-06-04T04:48:20;95303.19;;;15.72;84.67
77723;BME280;67811;42.656;23.394;2023-06-04T04:50:45;95298.84;;;15.71;84.23
77723;BME280;67811;42.656;23.394;2023-06-04T04:53:10;95301.53;;;15.77;84.41
77723;BME280;67811;42.656;23.394;2023-06-04T04:55:36;95306.69;;;15.72;84.51
77723;BME280;67811;42.656;23.394;2023-06-04T04:58:01;95309.75;;;15.69;84.43
77723;BME280;67811;42.656;23.394;2023-06-04T05:00:28;95301.03;;;15.87;83.87
77723;BME280;67811;42.656;23.394;2023-06-04T05:02:54;95309.25;;;15.92;82.21
77723;BME280;67811;42.656;23.394;2023-06-04T05:05:19;95314.84;;;15.84;82.11
77723;BME280;67811;42.656;23.394;2023-06-04T05:07:44;95314.41;;;15.94;82.30
77723;BME280;67811;42.656;23.394;2023-06-04T05:10:10;95313.06;;;15.71;81.98
77723;BME280;67811;42.656;23.394;2023-06-04T05:12:35;95322.44;;;15.87;81.95
77723;BME280;67811;42.656;23.394;2023-06-04T05:15:00;95317.09;;;15.87;81.35
77723;BME280;67811;42.656;23.394;2023-06-04T05:17:25;95316.19;;;16.06;81.37
77723;BME280;67811;42.656;23.394;2023-06-04T05:19:50;95325.25;;;16.05;81.33
77723;BME280;67811;42.656;23.394;2023-06-04T05:22:16;95321.75;;;15.98;80.83
77723;BME280;67811;42.656;23.394;2023-06-04T05:24:41;95321.56;;;16.00;80.86
77723;BME280;67811;42.656;23.394;2023-06-04T05:27:06;95322.53;;;16.12;81.29
77723;BME280;67811;42.656;23.394;2023-06-04T05:29:32;95328.66;;;16.19;80.94
77723;BME280;67811;42.656;23.394;2023-06-04T05:31:57;95321.19;;;16.34;81.22
77723;BME280;67811;42.656;23.394;2023-06-04T05:34:22;95316.88;;;16.33;78.20
77723;BME280;67811;42.656;23.394;2023-06-04T05:36:47;95322.81;;;16.36;77.36
77723;BME280;67811;42.656;23.394;2023-06-04T05:39:13;95333.44;;;16.49;76.34
77723;BME280;67811;42.656;23.394;2023-06-04T05:41:38;95330.94;;;16.54;75.54
77723;BME280;67811;42.656;23.394;2023-06-04T05:44:03;95328.28;;;16.54;75.30
77723;BME280;67811;42.656;23.394;2023-06-04T05:46:29;95337.00;;;16.43;75.55
77723;BME280;67811;42.656;23.394;2023-06-04T05:48:54;95334.72;;;16.40;76.51
77723;BME280;67811;42.656;23.394;2023-06-04T05:51:19;95336.94;;;16.49;77.17
77723;BME280;67811;42.656;23.394;2023-06-04T05:53:45;95340.22;;;16.51;76.42
77723;BME280;67811;42.656;23.394;2023-06-04T05:56:10;95340.22;;;16.51;76.34
77723;BME280;67811;42.656;23.394;2023-06-04T05:58:36;95341.31;;;16.44;75.60
77723;BME280;67811;42.656;23.394;2023-06-04T06:01:01;95342.47;;;16.54;75.82
77723;BME280;67811;42.656;23.394;2023-06-04T06:03:26;95347.53;;;16.31;76.88
77723;BME280;67811;42.656;23.394;2023-06-04T06:05:52;95353.53;;;16.58;75.94
77723;BME280;67811;42.656;23.394;2023-06-04T06:08:17;95360.88;;;16.69;75.21
77723;BME280;67811;42.656;23.394;2023-06-04T06:10:42;95365.19;;;16.77;74.99
77723;BME280;67811;42.656;23.394;2023-06-04T06:13:07;95371.59;;;16.76;73.89
77723;BME280;67811;42.656;23.394;2023-06-04T06:15:33;95367.38;;;16.55;74.23
77723;BME280;67811;42.656;23.394;2023-06-04T06:17:58;95364.69;;;16.55;74.25
77723;BME280;67811;42.656;23.394;2023-06-04T06:20:23;95366.88;;;16.65;74.18
77723;BME280;67811;42.656;23.394;2023-06-04T06:22:49;95364.06;;;16.53;74.39
77723;BME280;67811;42.656;23.394;2023-06-04T06:25:14;95363.56;;;16.76;72.26
77723;BME280;67811;42.656;23.394;2023-06-04T06:27:39;95362.44;;;16.52;73.31
77723;BME280;67811;42.656;23.394;2023-06-04T06:30:06;95363.56;;;16.38;74.54
77723;BME280;67811;42.656;23.394;2023-06-04T06:32:32;95365.72;;;16.54;74.54
77723;BME280;67811;42.656;23.394;2023-06-04T06:34:57;95367.53;;;16.60;73.76
77723;BME280;67811;42.656;23.394;2023-06-04T06:37:22;95373.00;;;16.78;73.55
77723;BME280;67811;42.656;23.394;2023-06-04T06:39:48;95369.13;;;16.74;73.67
77723;BME280;67811;42.656;23.394;2023-06-04T06:42:13;95365.72;;;16.92;73.88
77723;BME280;67811;42.656;23.394;2023-06-04T06:44:38;95368.16;;;16.94;72.62
77723;BME280;67811;42.656;23.394;2023-06-04T06:47:03;95368.06;;;17.07;73.24
77723;BME280;67811;42.656;23.394;2023-06-04T06:49:29;95368.94;;;17.26;71.95
77723;BME280;67811;42.656;23.394;2023-06-04T06:51:54;95377.50;;;17.34;71.87
77723;BME280;67811;42.656;23.394;2023-06-04T06:54:19;95375.72;;;17.28;70.68
77723;BME280;67811;42.656;23.394;2023-06-04T06:56:44;95368.88;;;16.82;70.57
77723;BME280;67811;42.656;23.394;2023-06-04T06:59:10;95378.75;;;16.82;71.08
77723;BME280;67811;42.656;23.394;2023-06-04T07:01:35;95374.97;;;16.90;71.61
77723;BME280;67811;42.656;23.394;2023-06-04T07:04:00;95377.41;;;17.23;70.66
77723;BME280;67811;42.656;23.394;2023-06-04T07:06:26;95369.22;;;17.43;70.39
77723;BME280;67811;42.656;23.394;2023-06-04T07:08:51;95380.34;;;17.39;70.35
77723;BME280;67811;42.656;23.394;2023-06-04T07:11:16;95380.47;;;17.26;70.61
77723;BME280;67811;42.656;23.394;2023-06-04T07:13:42;95378.88;;;17.44;70.69
77723;BME280;67811;42.656;23.394;2023-06-04T07:16:07;95383.34;;;17.50;70.15
77723;BME280;67811;42.656;23.394;2023-06-04T07:18:32;95393.06;;;17.69;70.54
77723;BME280;67811;42.656;23.394;2023-06-04T07:20:58;95399.72;;;17.42;70.64
77723;BME280;67811;42.656;23.394;2023-06-04T07:23:23;95401.25;;;17.31;71.78
77723;BME280;67811;42.656;23.394;2023-06-04T07:25:48;95404.56;;;17.51;72.24
77723;BME280;67811;42.656;23.394;2023-06-04T07:28:14;95403.31;;;17.54;71.27
77723;BME280;67811;42.656;23.394;2023-06-04T07:30:39;95399.38;;;17.56;71.33
77723;BME280;67811;42.656;23.394;2023-06-04T07:33:04;95392.78;;;17.52;71.41
77723;BME280;67811;42.656;23.394;2023-06-04T07:35:30;95397.22;;;17.65;71.75
77723;BME280;67811;42.656;23.394;2023-06-04T07:37:55;95405.56;;;17.82;70.47
77723;BME280;67811;42.656;23.394;2023-06-04T07:40:20;95411.22;;;17.92;71.06
77723;BME280;67811;42.656;23.394;2023-06-04T07:42:46;95399.81;;;18.15;70.76
77723;BME280;67811;42.656;23.394;2023-06-04T07:45:11;95406.81;;;18.16;70.18
77723;BME280;67811;42.656;23.394;2023-06-04T07:47:37;95399.50;;;18.23;70.47
77723;BME280;67811;42.656;23.394;2023-06-04T07:50:06;95407.41;;;18.18;70.51
77723;BME280;67811;42.656;23.394;2023-06-04T07:52:32;95402.50;;;18.33;70.17
77723;BME280;67811;42.656;23.394;2023-06-04T07:54:57;95414.59;;;18.24;69.96
77723;BME280;67811;42.656;23.394;2023-06-04T07:57:22;95417.25;;;18.06;71.99
77723;BME280;67811;42.656;23.394;2023-06-04T07:59:48;95408.31;;;18.30;70.41
77723;BME280;67811;42.656;23.394;2023-06-04T08:02:13;95414.19;;;18.57;70.08
77723;BME280;67811;42.656;23.394;2023-06-04T08:04:39;95411.66;;;18.44;70.01
77723;BME280;67811;42.656;23.394;2023-06-04T08:07:04;95409.78;;;18.44;68.62
77723;BME280;67811;42.656;23.394;2023-06-04T08:09:29;95422.53;;;17.94;70.57
77723;BME280;67811;42.656;23.394;2023-06-04T08:11:54;95421.59;;;18.25;70.22
77723;BME280;67811;42.656;23.394;2023-06-04T08:14:20;95413.84;;;18.35;70.98
77723;BME280;67811;42.656;23.394;2023-06-04T08:16:45;95412.63;;;18.31;69.78
77723;BME280;67811;42.656;23.394;2023-06-04T08:19:10;95409.47;;;18.34;70.87
77723;BME280;67811;42.656;23.394;2023-06-04T08:21:36;95412.75;;;18.55;70.22
77723;BME280;67811;42.656;23.394;2023-06-04T08:24:01;95411.00;;;18.30;70.11
77723;BME280;67811;42.656;23.394;2023-06-04T08:26:26;95416.50;;;18.35;70.70
77723;BME280;67811;42.656;23.394;2023-06-04T08:28:52;95418.28;;;18.05;71.24
77723;BME280;67811;42.656;23.394;2023-06-04T08:31:17;95410.78;;;18.32;70.20
77723;BME280;67811;42.656;23.394;2023-06-04T08:33:45;95415.00;;;18.39;70.17
77723;BME280;67811;42.656;23.394;2023-06-04T08:36:11;95411.88;;;18.42;69.18
77723;BME280;67811;42.656;23.394;2023-06-04T08:38:36;95426.28;;;18.30;68.59
77723;BME280;67811;42.656;23.394;2023-06-04T08:41:15;95439.16;;;18.21;68.26
77723;BME280;67811;42.656;23.394;2023-06-04T08:43:42;95430.44;;;18.26;69.34
77723;BME280;67811;42.656;23.394;2023-06-04T08:46:08;95424.38;;;18.49;68.19
77723;BME280;67811;42.656;23.394;2023-06-04T08:48:33;95426.97;;;18.55;67.85
77723;BME280;67811;42.656;23.394;2023-06-04T08:50:59;95434.59;;;18.58;67.79
77723;BME280;67811;42.656;23.394;2023-06-04T08:53:24;95435.34;;;18.47;68.17
77723;BME280;67811;42.656;23.394;2023-06-04T08:55:50;95458.91;;;18.27;66.95
77723;BME280;67811;42.656;23.394;2023-06-04T08:58:19;95430.81;;;18.11;65.83
77723;BME280;67811;42.656;23.394;2023-06-04T09:00:44;95453.09;;;18.30;66.63
77723;BME280;67811;42.656;23.394;2023-06-04T09:03:10;95445.94;;;18.05;65.92
77723;BME280;67811;42.656;23.394;2023-06-04T09:05:38;95444.81;;;18.13;66.72
77723;BME280;67811;42.656;23.394;2023-06-04T09:08:04;95449.59;;;18.11;65.39
77723;BME280;67811;42.656;23.394;2023-06-04T09:10:34;95456.44;;;18.07;65.94
77723;BME280;67811;42.656;23.394;2023-06-04T09:13:01;95457.78;;;18.16;65.86
77723;BME280;67811;42.656;23.394;2023-06-04T09:15:27;95460.59;;;18.39;64.69
77723;BME280;67811;42.656;23.394;2023-06-04T09:17:52;95453.75;;;18.43;64.84
77723;BME280;67811;42.656;23.394;2023-06-04T09:20:19;95450.63;;;18.65;63.76
77723;BME280;67811;42.656;23.394;2023-06-04T09:22:44;95450.59;;;18.83;63.80
77723;BME280;67811;42.656;23.394;2023-06-04T09:25:19;95447.09;;;18.83;63.92
77723;BME280;67811;42.656;23.394;2023-06-04T09:27:44;95442.19;;;18.61;62.94
77723;BME280;67811;42.656;23.394;2023-06-04T09:30:10;95438.53;;;18.56;63.28
77723;BME280;67811;42.656;23.394;2023-06-04T09:32:35;95443.81;;;18.62;63.42
77723;BME280;67811;42.656;23.394;2023-06-04T09:35:18;95436.78;;;18.68;63.12
77723;BME280;67811;42.656;23.394;2023-06-04T09:37:56;95446.91;;;19.26;61.92
77723;BME280;67811;42.656;23.394;2023-06-04T09:40:22;95443.75;;;19.29;62.06
77723;BME280;67811;42.656;23.394;2023-06-04T09:42:48;95449.59;;;19.26;61.31
77723;BME280;67811;42.656;23.394;2023-06-04T09:45:26;95449.50;;;19.44;62.55
77723;BME280;67811;42.656;23.394;2023-06-04T09:47:52;95447.91;;;19.13;61.33
77723;BME280;67811;42.656;23.394;2023-06-04T09:50:25;95443.75;;;19.29;61.10
77723;BME280;67811;42.656;23.394;2023-06-04T09:52:50;95442.09;;;19.70;59.85
77723;BME280;67811;42.656;23.394;2023-06-04T09:55:17;95444.06;;;20.33;58.64
77723;BME280;67811;42.656;23.394;2023-06-04T09:57:45;95436.56;;;20.35;57.94
77723;BME280;67811;42.656;23.394;2023-06-04T10:00:11;95436.00;;;20.33;58.17
77723;BME280;67811;42.656;23.394;2023-06-04T10:02:37;95431.28;;;20.52;57.61
77723;BME280;67811;42.656;23.394;2023-06-04T10:05:04;95427.13;;;20.09;57.22
77723;BME280;67811;42.656;23.394;2023-06-04T10:07:30;95429.63;;;20.63;57.56
77723;BME280;67811;42.656;23.394;2023-06-04T10:09:56;95429.25;;;21.62;55.10
77723;BME280;67811;42.656;23.394;2023-06-04T10:12:30;95433.75;;;21.56;53.77
77723;BME280;67811;42.656;23.394;2023-06-04T10:14:59;95429.94;;;21.23;53.51
77723;BME280;67811;42.656;23.394;2023-06-04T10:17:27;95425.91;;;21.54;54.10
77723;BME280;67811;42.656;23.394;2023-06-04T10:19:53;95425.00;;;21.99;53.02
77723;BME280;67811;42.656;23.394;2023-06-04T10:22:19;95416.84;;;21.77;53.30
77723;BME280;67811;42.656;23.394;2023-06-04T10:24:45;95430.06;;;21.79;52.74
77723;BME280;67811;42.656;23.394;2023-06-04T10:27:11;95426.72;;;21.72;51.58
77723;BME280;67811;42.656;23.394;2023-06-04T10:29:37;95427.03;;;21.75;52.38
77723;BME280;67811;42.656;23.394;2023-06-04T10:32:03;95435.19;;;21.97;52.65
77723;BME280;67811;42.656;23.394;2023-06-04T10:34:28;95425.13;;;22.09;52.96
77723;BME280;67811;42.656;23.394;2023-06-04T10:36:55;95429.72;;;21.75;52.81
77723;BME280;67811;42.656;23.394;2023-06-04T10:39:30;95432.97;;;21.27;54.16
77723;BME280;67811;42.656;23.394;2023-06-04T10:42:02;95429.81;;;21.01;54.73
77723;BME280;67811;42.656;23.394;2023-06-04T10:44:32;95427.47;;;21.05;55.36
77723;BME280;67811;42.656;23.394;2023-06-04T10:47:18;95410.22;;;21.06;56.07
77723;BME280;67811;42.656;23.394;2023-06-04T10:49:43;95430.72;;;21.36;54.94
77723;BME280;67811;42.656;23.394;2023-06-04T10:52:11;95424.50;;;21.52;54.09
77723;BME280;67811;42.656;23.394;2023-06-04T10:54:37;95430.16;;;21.05;54.17
77723;BME280;67811;42.656;23.394;2023-06-04T10:57:16;95423.72;;;21.23;54.22
77723;BME280;67811;42.656;23.394;2023-06-04T10:59:41;95417.28;;;21.24;53.62
77723;BME280;67811;42.656;23.394;2023-06-04T11:02:08;95417.28;;;21.24;54.67
77723;BME280;67811;42.656;23.394;2023-06-04T11:04:34;95420.44;;;21.66;54.40
77723;BME280;67811;42.656;23.394;2023-06-04T11:07:01;95416.44;;;21.52;53.96
77723;BME280;67811;42.656;23.394;2023-06-04T11:09:26;95419.69;;;21.37;54.70
77723;BME280;67811;42.656;23.394;2023-06-04T11:11:58;95413.72;;;21.35;53.98
77723;BME280;67811;42.656;23.394;2023-06-04T11:14:24;95414.56;;;21.07;56.16
77723;BME280;67811;42.656;23.394;2023-06-04T11:16:49;95416.28;;;21.13;54.91
77723;BME280;67811;42.656;23.394;2023-06-04T11:19:14;95419.59;;;21.03;55.75
77723;BME280;67811;42.656;23.394;2023-06-04T11:21:40;95408.75;;;20.18;57.88
77723;BME280;67811;42.656;23.394;2023-06-04T11:24:05;95423.66;;;20.61;57.31
77723;BME280;67811;42.656;23.394;2023-06-04T11:26:35;95422.91;;;20.77;56.23
77723;BME280;67811;42.656;23.394;2023-06-04T11:29:05;95411.34;;;20.93;56.38
77723;BME280;67811;42.656;23.394;2023-06-04T11:31:41;95417.22;;;20.90;56.53
77723;BME280;67811;42.656;23.394;2023-06-04T11:34:06;95409.59;;;20.87;56.71
77723;BME280;67811;42.656;23.394;2023-06-04T11:36:31;95413.66;;;20.73;55.88
77723;BME280;67811;42.656;23.394;2023-06-04T11:38:58;95416.09;;;20.34;57.60
77723;BME280;67811;42.656;23.394;2023-06-04T11:41:27;95426.16;;;20.15;56.98
77723;BME280;67811;42.656;23.394;2023-06-04T11:43:52;95417.97;;;20.34;57.36
77723;BME280;67811;42.656;23.394;2023-06-04T11:46:19;95414.06;;;20.53;56.87
77723;BME280;67811;42.656;23.394;2023-06-04T11:48:44;95420.06;;;20.32;57.51
77723;BME280;67811;42.656;23.394;2023-06-04T11:51:10;95421.59;;;20.27;58.13
77723;BME280;67811;42.656;23.394;2023-06-04T11:53:36;95419.09;;;20.61;57.33
77723;BME280;67811;42.656;23.394;2023-06-04T11:56:02;95408.34;;;21.35;54.74
77723;BME280;67811;42.656;23.394;2023-06-04T11:58:28;95413.59;;;21.13;55.47
77723;BME280;67811;42.656;23.394;2023-06-04T12:00:55;95402.25;;;21.11;56.08
77723;BME280;67811;42.656;23.394;2023-06-04T12:03:34;95410.94;;;21.47;55.87
77723;BME280;67811;42.656;23.394;2023-06-04T12:06:20;95426.03;;;21.31;54.38
77723;BME280;67811;42.656;23.394;2023-06-04T12:08:52;95422.53;;;21.30;54.87
77723;BME280;67811;42.656;23.394;2023-06-04T12:11:28;95426.25;;;21.13;54.90
77723;BME280;67811;42.656;23.394;2023-06-04T12:13:55;95431.16;;;20.87;55.97
77723;BME280;67811;42.656;23.394;2023-06-04T12:16:21;95417.38;;;20.84;56.46
77723;BME280;67811;42.656;23.394;2023-06-04T12:18:46;95405.53;;;20.44;57.24
77723;BME280;67811;42.656;23.394;2023-06-04T12:21:22;95421.22;;;20.36;58.15
77723;BME280;67811;42.656;23.394;2023-06-04T12:23:47;95417.81;;;20.40;58.17
77723;BME280;67811;42.656;23.394;2023-06-04T12:26:24;95423.00;;;20.30;58.41
77723;BME280;67811;42.656;23.394;2023-06-04T12:29:02;95434.03;;;19.93;58.81
77723;BME280;67811;42.656;23.394;2023-06-04T12:31:27;95434.34;;;20.20;58.98
77723;BME280;67811;42.656;23.394;2023-06-04T12:33:53;95424.28;;;20.16;58.07
77723;BME280;67811;42.656;23.394;2023-06-04T12:36:18;95423.00;;;20.18;58.51
77723;BME280;67811;42.656;23.394;2023-06-04T12:38:43;95426.06;;;20.22;58.66
77723;BME280;67811;42.656;23.394;2023-06-04T12:41:08;95419.97;;;20.15;57.93
77723;BME280;67811;42.656;23.394;2023-06-04T12:43:34;95418.94;;;19.92;58.62
77723;BME280;67811;42.656;23.394;2023-06-04T12:45:59;95423.25;;;19.93;58.57
77723;BME280;67811;42.656;23.394;2023-06-04T12:48:24;95416.94;;;20.11;58.78
77723;BME280;67811;42.656;23.394;2023-06-04T12:50:50;95425.00;;;20.23;58.51